createdAt,value
2022-08-04T00:01:24.096Z,26.70
2022-08-04T00:11:32.877Z,26.80
2022-08-04T00:21:40.193Z,26.50
2022-08-04T00:31:54.963Z,26.80
2022-08-04T00:42:21.110Z,26.60
2022-08-04T00:52:37.268Z,26.40
2022-08-04T01:03:03.161Z,26.40
2022-08-04T01:13:48.307Z,26.20
2022-08-04T01:24:07.199Z,26.00
2022-08-04T01:34:14.594Z,26.20
2022-08-04T01:44:20.238Z,26.00
2022-08-04T01:54:27.164Z,25.70
2022-08-04T02:04:30.892Z,25.60
2022-08-04T02:14:46.609Z,25.40
2022-08-04T02:24:53.053Z,25.40
2022-08-04T02:35:04.811Z,25.20
2022-08-04T02:45:09.361Z,25.20
2022-08-04T02:55:16.635Z,25.00
2022-08-04T03:05:23.642Z,25.10
2022-08-04T03:15:59.836Z,24.80
2022-08-04T03:26:25.081Z,24.70
2022-08-04T03:37:04.063Z,24.70
2022-08-04T03:47:42.341Z,24.50
2022-08-04T03:58:09.552Z,24.60
2022-08-04T04:08:49.667Z,24.60
2022-08-04T04:19:23.088Z,24.50
2022-08-04T04:29:54.365Z,24.70
2022-08-04T04:40:15.899Z,24.50
2022-08-04T04:50:28.605Z,24.70
2022-08-04T05:01:10.133Z,24.70
2022-08-04T05:11:45.794Z,24.70
2022-08-04T05:21:58.497Z,24.70
2022-08-04T05:32:16.410Z,24.70
2022-08-04T05:42:23.418Z,24.90
2022-08-04T05:52:28.305Z,25.10
2022-08-04T06:02:34.537Z,25.50
2022-08-04T06:12:41.777Z,26.00
2022-08-04T06:22:50.032Z,26.40
2022-08-04T06:33:03.519Z,26.90
2022-08-04T06:43:09.997Z,27.30
2022-08-04T06:53:14.634Z,27.80
2022-08-04T07:03:22.043Z,28.30
2022-08-04T07:13:26.411Z,28.20
2022-08-04T07:23:31.953Z,28.20
2022-08-04T07:33:36.124Z,28.20
2022-08-04T07:43:41.842Z,28.30
2022-08-04T07:53:54.164Z,28.60
2022-08-04T08:04:01.992Z,28.50
2022-08-04T08:14:08.756Z,28.60
2022-08-04T08:24:14.639Z,28.70
2022-08-04T08:34:27.557Z,28.80
2022-08-04T08:45:08.038Z,29.10
2022-08-04T08:55:28.058Z,29.20
2022-08-04T09:06:06.057Z,29.50
2022-08-04T09:16:20.693Z,29.70
2022-08-04T09:26:33.378Z,29.70
2022-08-04T09:36:44.930Z,30.00
2022-08-04T09:46:54.951Z,30.10
2022-08-04T09:57:15.341Z,30.40
2022-08-04T10:07:38.983Z,30.50
2022-08-04T10:18:13.209Z,30.50
2022-08-04T10:28:21.608Z,30.80
2022-08-04T10:38:32.674Z,31.00
2022-08-04T10:48:45.555Z,31.40
2022-08-04T10:58:56.048Z,31.90
2022-08-04T11:09:02.505Z,32.20
2022-08-04T11:19:19.013Z,32.50
2022-08-04T11:29:28.064Z,32.90
2022-08-04T11:39:37.859Z,33.70
2022-08-04T11:49:56.872Z,34.30
2022-08-04T12:00:07.080Z,34.50
2022-08-04T12:10:40.828Z,34.70
2022-08-04T12:20:51.108Z,35.10
2022-08-04T12:31:06.225Z,35.90
2022-08-04T12:41:21.698Z,37.20
2022-08-04T12:52:06.296Z,37.80
2022-08-04T13:02:09.813Z,38.10
2022-08-04T13:12:16.879Z,37.00
2022-08-04T13:22:29.241Z,36.50
2022-08-04T13:32:33.706Z,36.90
2022-08-04T13:42:40.483Z,37.10
2022-08-04T13:52:45.185Z,36.80
2022-08-04T14:02:59.373Z,36.70
2022-08-04T14:13:06.470Z,37.00
2022-08-04T14:23:11.678Z,37.10
2022-08-04T14:34:01.959Z,37.10
2022-08-04T14:43:46.209Z,38.20
2022-08-04T14:53:50.172Z,37.70
2022-08-04T15:03:57.720Z,37.10
2022-08-04T15:14:02.190Z,38.20
2022-08-04T15:24:07.924Z,38.50
2022-08-04T15:34:12.855Z,37.60
2022-08-04T15:44:50.366Z,37.20
2022-08-04T15:55:34.433Z,36.40
2022-08-04T16:05:42.541Z,34.80
2022-08-04T16:15:48.800Z,33.50
2022-08-04T16:25:54.275Z,32.30
2022-08-04T16:36:07.846Z,32.00
2022-08-04T16:46:41.818Z,32.60
2022-08-04T16:57:10.826Z,32.10
2022-08-04T17:07:16.186Z,32.10
2022-08-04T17:17:24.892Z,32.10
2022-08-04T17:28:20.101Z,33.20
2022-08-04T17:38:38.713Z,34.40
2022-08-04T17:49:07.230Z,35.00
2022-08-04T17:59:52.945Z,34.50
2022-08-04T18:10:02.295Z,32.40
2022-08-04T18:20:11.280Z,31.30
2022-08-04T18:40:54.180Z,30.10
2022-08-04T18:51:22.574Z,29.80
2022-08-04T19:01:30.486Z,29.30
2022-08-04T19:11:54.413Z,29.20
2022-08-04T19:22:02.506Z,29.00
2022-08-04T19:32:16.477Z,28.80
2022-08-04T19:42:21.681Z,28.70
2022-08-04T19:52:33.842Z,28.60
2022-08-04T20:02:39.119Z,28.50
2022-08-04T20:12:47.006Z,28.40
2022-08-04T20:22:59.719Z,28.30
2022-08-04T20:33:06.869Z,28.30
2022-08-04T20:43:10.903Z,28.30
2022-08-04T20:53:17.312Z,28.00
2022-08-04T21:03:21.189Z,28.00
2022-08-04T21:13:51.952Z,27.70
2022-08-04T21:23:56.309Z,27.50
2022-08-04T21:34:02.885Z,27.20
2022-08-04T21:44:07.736Z,26.90
2022-08-04T22:04:37.681Z,26.60
2022-08-04T22:14:50.256Z,26.40
2022-08-04T22:24:54.604Z,26.50
2022-08-04T22:35:36.459Z,26.30
2022-08-04T22:45:28.759Z,26.10
2022-08-04T22:56:07.179Z,26.00
2022-08-04T23:06:13.316Z,25.90
2022-08-04T23:16:19.754Z,25.90
2022-08-04T23:26:27.978Z,26.00
2022-08-04T23:36:33.672Z,25.80
2022-08-04T23:46:37.595Z,25.70
2022-08-04T23:56:42.934Z,25.50
